CheckWX is a tool to help pilots better visualize weather data.  It is not intended as a substitute for an official pre-flight weather briefing.

12:00:25 UTC

K4BM METAR
Wilkerson Pass Airport
Wilkerson Pass, Colorado, USA
Current

24 mins ago

K4BM 251136Z AUTO 28010G19KT 10SM SCT100 M06/M11 A3029 RMK AO2 LTG DSNT NW
Observed
Mar-25 @ 11:36 UTC
Wind
  • 280° at 10 KTS
  • Gusting to 19 KTS
Visibility
10 SM
Flight Rules
VFR
Cloud Levels
  • Scattered at 10,000' AGL
Temperature
-6°C / 21°F
Dewpoint
-11°C / 12°F
Humidity
68%
Altimeter
30.29" Hg
Pressure
1025.72 hPa
Previous

48 mins ago

K4BM 251112Z AUTO 28010G21KT 10SM SCT100 M06/M11 A3029 RMK AO2 LTG DSNT NW
Observed
Mar-25 @ 11:12 UTC
Wind
  • 280° at 10 KTS
  • Gusting to 21 KTS
Visibility
10 SM
Flight Rules
VFR
Cloud Levels
  • Scattered at 10,000' AGL
Temperature
-6°C / 21°F
Dewpoint
-11°C / 12°F
Humidity
68%
Altimeter
30.29" Hg
Pressure
1025.72 hPa
Previous

1 hour ago

K4BM 251054Z AUTO 29011G20KT 10SM SCT100 M06/M10 A3029 RMK AO2 LTG DSNT NW
Observed
Mar-25 @ 10:54 UTC
Wind
  • 290° at 11 KTS
  • Gusting to 20 KTS
Visibility
10 SM
Flight Rules
VFR
Cloud Levels
  • Scattered at 10,000' AGL
Temperature
-6°C / 21°F
Dewpoint
-10°C / 14°F
Humidity
74%
Altimeter
30.29" Hg
Pressure
1025.72 hPa